sensor_id;sensor_type;location;lat;lon;timestamp;P1;durP1;ratioP1;P2;durP2;ratioP2
84101;SDS011;74198;51.618;8.334;2023-11-21T00:00:21;3.05;;;1.20;;
84101;SDS011;74198;51.618;8.334;2023-11-21T00:02:47;3.17;;;1.35;;
84101;SDS011;74198;51.618;8.334;2023-11-21T00:05:13;2.33;;;1.02;;
84101;SDS011;74198;51.618;8.334;2023-11-21T00:07:40;2.70;;;1.10;;
84101;SDS011;74198;51.618;8.334;2023-11-21T00:10:06;2.25;;;1.10;;
84101;SDS011;74198;51.618;8.334;2023-11-21T00:12:36;2.10;;;1.27;;
84101;SDS011;74198;51.618;8.334;2023-11-21T00:15:03;2.80;;;1.50;;
84101;SDS011;74198;51.618;8.334;2023-11-21T00:17:36;2.25;;;1.05;;
84101;SDS011;74198;51.618;8.334;2023-11-21T00:20:02;1.98;;;1.10;;
84101;SDS011;74198;51.618;8.334;2023-11-21T00:22:31;2.40;;;1.23;;
84101;SDS011;74198;51.618;8.334;2023-11-21T00:24:57;2.22;;;1.10;;
84101;SDS011;74198;51.618;8.334;2023-11-21T00:27:23;2.63;;;1.30;;
84101;SDS011;74198;51.618;8.334;2023-11-21T00:29:49;2.35;;;1.27;;
84101;SDS011;74198;51.618;8.334;2023-11-21T00:32:15;2.58;;;1.10;;
84101;SDS011;74198;51.618;8.334;2023-11-21T00:34:41;3.08;;;1.35;;
84101;SDS011;74198;51.618;8.334;2023-11-21T00:37:07;2.67;;;1.10;;
84101;SDS011;74198;51.618;8.334;2023-11-21T00:39:33;4.72;;;1.27;;
84101;SDS011;74198;51.618;8.334;2023-11-21T00:42:00;2.22;;;1.10;;
84101;SDS011;74198;51.618;8.334;2023-11-21T00:44:26;1.88;;;1.10;;
84101;SDS011;74198;51.618;8.334;2023-11-21T00:46:52;1.98;;;1.13;;
84101;SDS011;74198;51.618;8.334;2023-11-21T00:49:19;2.72;;;1.30;;
84101;SDS011;74198;51.618;8.334;2023-11-21T00:51:45;2.50;;;1.23;;
84101;SDS011;74198;51.618;8.334;2023-11-21T00:54:11;2.20;;;1.15;;
84101;SDS011;74198;51.618;8.334;2023-11-21T00:56:37;2.10;;;1.30;;
84101;SDS011;74198;51.618;8.334;2023-11-21T00:59:05;2.15;;;1.02;;
84101;SDS011;74198;51.618;8.334;2023-11-21T01:01:31;3.15;;;1.48;;
84101;SDS011;74198;51.618;8.334;2023-11-21T01:03:57;2.28;;;1.30;;
84101;SDS011;74198;51.618;8.334;2023-11-21T01:06:23;2.42;;;1.23;;
84101;SDS011;74198;51.618;8.334;2023-11-21T01:08:50;2.78;;;1.35;;
84101;SDS011;74198;51.618;8.334;2023-11-21T01:11:16;2.35;;;1.25;;
84101;SDS011;74198;51.618;8.334;2023-11-21T01:13:42;2.13;;;1.20;;
84101;SDS011;74198;51.618;8.334;2023-11-21T01:16:09;2.70;;;1.23;;
84101;SDS011;74198;51.618;8.334;2023-11-21T01:18:36;2.45;;;1.10;;
84101;SDS011;74198;51.618;8.334;2023-11-21T01:21:02;2.00;;;1.10;;
84101;SDS011;74198;51.618;8.334;2023-11-21T01:23:28;1.85;;;1.20;;
84101;SDS011;74198;51.618;8.334;2023-11-21T01:25:55;2.90;;;1.23;;
84101;SDS011;74198;51.618;8.334;2023-11-21T01:28:21;2.00;;;1.13;;
84101;SDS011;74198;51.618;8.334;2023-11-21T01:30:48;2.17;;;1.00;;
84101;SDS011;74198;51.618;8.334;2023-11-21T01:33:14;2.30;;;1.02;;
84101;SDS011;74198;51.618;8.334;2023-11-21T01:35:43;2.13;;;0.95;;
84101;SDS011;74198;51.618;8.334;2023-11-21T01:38:11;2.17;;;1.20;;
84101;SDS011;74198;51.618;8.334;2023-11-21T01:40:37;3.13;;;1.40;;
84101;SDS011;74198;51.618;8.334;2023-11-21T01:43:03;2.00;;;0.93;;
84101;SDS011;74198;51.618;8.334;2023-11-21T01:45:29;2.00;;;1.20;;
84101;SDS011;74198;51.618;8.334;2023-11-21T01:47:59;2.80;;;1.30;;
84101;SDS011;74198;51.618;8.334;2023-11-21T01:50:25;2.47;;;1.25;;
84101;SDS011;74198;51.618;8.334;2023-11-21T01:52:52;3.28;;;1.30;;
84101;SDS011;74198;51.618;8.334;2023-11-21T01:55:18;3.33;;;1.35;;
84101;SDS011;74198;51.618;8.334;2023-11-21T01:57:45;1.80;;;1.10;;
84101;SDS011;74198;51.618;8.334;2023-11-21T02:00:11;1.80;;;1.10;;
84101;SDS011;74198;51.618;8.334;2023-11-21T02:02:43;2.10;;;1.20;;
84101;SDS011;74198;51.618;8.334;2023-11-21T02:05:10;1.77;;;0.98;;
84101;SDS011;74198;51.618;8.334;2023-11-21T02:07:37;1.92;;;1.02;;
84101;SDS011;74198;51.618;8.334;2023-11-21T02:10:03;2.10;;;1.00;;
84101;SDS011;74198;51.618;8.334;2023-11-21T02:12:29;2.22;;;1.20;;
84101;SDS011;74198;51.618;8.334;2023-11-21T02:14:55;1.88;;;1.20;;
84101;SDS011;74198;51.618;8.334;2023-11-21T02:17:21;2.42;;;1.20;;
84101;SDS011;74198;51.618;8.334;2023-11-21T02:19:47;2.70;;;1.13;;
84101;SDS011;74198;51.618;8.334;2023-11-21T02:22:16;1.85;;;1.08;;
84101;SDS011;74198;51.618;8.334;2023-11-21T02:24:42;2.60;;;1.20;;
84101;SDS011;74198;51.618;8.334;2023-11-21T02:27:08;1.60;;;1.05;;
84101;SDS011;74198;51.618;8.334;2023-11-21T02:29:35;2.17;;;1.20;;
84101;SDS011;74198;51.618;8.334;2023-11-21T02:32:01;2.22;;;1.20;;
84101;SDS011;74198;51.618;8.334;2023-11-21T02:34:27;2.20;;;1.02;;
84101;SDS011;74198;51.618;8.334;2023-11-21T02:36:52;2.67;;;1.02;;
84101;SDS011;74198;51.618;8.334;2023-11-21T02:39:18;2.30;;;1.10;;
84101;SDS011;74198;51.618;8.334;2023-11-21T02:41:47;2.65;;;1.20;;
84101;SDS011;74198;51.618;8.334;2023-11-21T02:44:13;2.55;;;1.20;;
84101;SDS011;74198;51.618;8.334;2023-11-21T02:46:39;1.70;;;1.10;;
84101;SDS011;74198;51.618;8.334;2023-11-21T02:49:05;3.42;;;1.20;;
84101;SDS011;74198;51.618;8.334;2023-11-21T02:51:31;1.75;;;1.00;;
84101;SDS011;74198;51.618;8.334;2023-11-21T02:53:57;2.80;;;1.17;;
84101;SDS011;74198;51.618;8.334;2023-11-21T02:56:24;2.63;;;1.30;;
84101;SDS011;74198;51.618;8.334;2023-11-21T02:58:51;1.75;;;0.95;;
84101;SDS011;74198;51.618;8.334;2023-11-21T03:01:17;2.25;;;1.00;;
84101;SDS011;74198;51.618;8.334;2023-11-21T03:03:43;2.17;;;1.20;;
84101;SDS011;74198;51.618;8.334;2023-11-21T03:06:09;2.70;;;1.30;;
84101;SDS011;74198;51.618;8.334;2023-11-21T03:08:35;1.80;;;1.20;;
84101;SDS011;74198;51.618;8.334;2023-11-21T03:11:01;2.05;;;1.08;;
84101;SDS011;74198;51.618;8.334;2023-11-21T03:13:30;1.63;;;1.00;;
84101;SDS011;74198;51.618;8.334;2023-11-21T03:15:56;2.28;;;1.05;;
84101;SDS011;74198;51.618;8.334;2023-11-21T03:18:22;2.13;;;1.08;;
84101;SDS011;74198;51.618;8.334;2023-11-21T03:20:48;1.60;;;1.05;;
84101;SDS011;74198;51.618;8.334;2023-11-21T03:23:14;2.22;;;1.00;;
84101;SDS011;74198;51.618;8.334;2023-11-21T03:25:40;2.72;;;1.08;;
84101;SDS011;74198;51.618;8.334;2023-11-21T03:28:06;1.67;;;0.98;;
84101;SDS011;74198;51.618;8.334;2023-11-21T03:30:33;1.67;;;1.00;;
84101;SDS011;74198;51.618;8.334;2023-11-21T03:32:59;1.70;;;0.88;;
84101;SDS011;74198;51.618;8.334;2023-11-21T03:35:25;2.40;;;1.30;;
84101;SDS011;74198;51.618;8.334;2023-11-21T03:37:52;2.22;;;1.10;;
84101;SDS011;74198;51.618;8.334;2023-11-21T03:40:18;2.20;;;1.13;;
84101;SDS011;74198;51.618;8.334;2023-11-21T03:42:44;1.80;;;1.13;;
84101;SDS011;74198;51.618;8.334;2023-11-21T03:45:09;1.80;;;1.20;;
84101;SDS011;74198;51.618;8.334;2023-11-21T03:47:37;1.73;;;1.17;;
84101;SDS011;74198;51.618;8.334;2023-11-21T03:50:03;1.83;;;1.00;;
84101;SDS011;74198;51.618;8.334;2023-11-21T03:52:29;2.15;;;1.05;;
84101;SDS011;74198;51.618;8.334;2023-11-21T03:54:55;2.40;;;1.17;;
84101;SDS011;74198;51.618;8.334;2023-11-21T03:57:21;2.30;;;1.13;;
84101;SDS011;74198;51.618;8.334;2023-11-21T03:59:47;2.20;;;1.15;;
84101;SDS011;74198;51.618;8.334;2023-11-21T04:02:13;1.73;;;1.00;;
84101;SDS011;74198;51.618;8.334;2023-11-21T04:04:39;1.88;;;1.08;;
84101;SDS011;74198;51.618;8.334;2023-11-21T04:07:05;1.65;;;0.80;;
84101;SDS011;74198;51.618;8.334;2023-11-21T04:09:31;1.52;;;0.82;;
84101;SDS011;74198;51.618;8.334;2023-11-21T04:11:57;2.40;;;1.00;;
84101;SDS011;74198;51.618;8.334;2023-11-21T04:14:23;1.98;;;0.90;;
84101;SDS011;74198;51.618;8.334;2023-11-21T04:16:49;2.13;;;1.08;;
84101;SDS011;74198;51.618;8.334;2023-11-21T04:19:15;2.00;;;1.10;;
84101;SDS011;74198;51.618;8.334;2023-11-21T04:21:42;1.88;;;0.82;;
84101;SDS011;74198;51.618;8.334;2023-11-21T04:24:08;2.20;;;1.20;;
84101;SDS011;74198;51.618;8.334;2023-11-21T04:26:34;1.98;;;1.08;;
84101;SDS011;74198;51.618;8.334;2023-11-21T04:29:00;1.95;;;1.00;;
84101;SDS011;74198;51.618;8.334;2023-11-21T04:31:26;1.65;;;1.10;;
84101;SDS011;74198;51.618;8.334;2023-11-21T04:33:52;1.88;;;1.02;;
84101;SDS011;74198;51.618;8.334;2023-11-21T04:36:18;1.38;;;0.90;;
84101;SDS011;74198;51.618;8.334;2023-11-21T04:38:44;1.65;;;0.93;;
84101;SDS011;74198;51.618;8.334;2023-11-21T04:41:10;1.55;;;0.85;;
84101;SDS011;74198;51.618;8.334;2023-11-21T04:43:37;1.80;;;0.95;;
84101;SDS011;74198;51.618;8.334;2023-11-21T04:46:03;2.08;;;1.05;;
84101;SDS011;74198;51.618;8.334;2023-11-21T04:48:29;2.20;;;1.08;;
84101;SDS011;74198;51.618;8.334;2023-11-21T04:50:55;1.52;;;1.10;;
84101;SDS011;74198;51.618;8.334;2023-11-21T04:53:21;1.83;;;1.08;;
84101;SDS011;74198;51.618;8.334;2023-11-21T04:55:47;2.22;;;0.90;;
84101;SDS011;74198;51.618;8.334;2023-11-21T04:58:13;2.00;;;1.00;;
84101;SDS011;74198;51.618;8.334;2023-11-21T05:00:40;1.60;;;0.98;;
84101;SDS011;74198;51.618;8.334;2023-11-21T05:03:06;1.50;;;0.90;;
84101;SDS011;74198;51.618;8.334;2023-11-21T05:05:32;1.95;;;1.00;;
84101;SDS011;74198;51.618;8.334;2023-11-21T05:07:59;1.92;;;0.98;;
84101;SDS011;74198;51.618;8.334;2023-11-21T05:10:26;2.38;;;1.17;;
84101;SDS011;74198;51.618;8.334;2023-11-21T05:12:52;1.83;;;1.10;;
84101;SDS011;74198;51.618;8.334;2023-11-21T05:15:18;2.03;;;1.10;;
84101;SDS011;74198;51.618;8.334;2023-11-21T05:17:44;2.22;;;1.25;;
84101;SDS011;74198;51.618;8.334;2023-11-21T05:20:11;2.08;;;0.85;;
84101;SDS011;74198;51.618;8.334;2023-11-21T05:22:38;1.70;;;0.82;;
84101;SDS011;74198;51.618;8.334;2023-11-21T05:25:04;1.58;;;0.98;;
84101;SDS011;74198;51.618;8.334;2023-11-21T05:27:32;1.80;;;0.95;;
84101;SDS011;74198;51.618;8.334;2023-11-21T05:29:58;1.63;;;0.85;;
84101;SDS011;74198;51.618;8.334;2023-11-21T05:32:24;1.25;;;0.80;;
84101;SDS011;74198;51.618;8.334;2023-11-21T05:34:50;2.45;;;1.00;;
84101;SDS011;74198;51.618;8.334;2023-11-21T05:37:16;1.80;;;0.95;;
84101;SDS011;74198;51.618;8.334;2023-11-21T05:39:42;2.00;;;0.93;;
84101;SDS011;74198;51.618;8.334;2023-11-21T05:42:08;1.80;;;1.00;;
84101;SDS011;74198;51.618;8.334;2023-11-21T05:44:35;3.15;;;0.88;;
84101;SDS011;74198;51.618;8.334;2023-11-21T05:47:02;1.95;;;0.93;;
84101;SDS011;74198;51.618;8.334;2023-11-21T05:49:28;9.30;;;1.23;;
84101;SDS011;74198;51.618;8.334;2023-11-21T05:51:55;1.55;;;1.00;;
84101;SDS011;74198;51.618;8.334;2023-11-21T05:54:20;1.90;;;0.90;;
84101;SDS011;74198;51.618;8.334;2023-11-21T05:56:47;2.30;;;0.90;;
84101;SDS011;74198;51.618;8.334;2023-11-21T05:59:14;2.15;;;1.00;;
84101;SDS011;74198;51.618;8.334;2023-11-21T06:01:40;1.95;;;0.80;;
84101;SDS011;74198;51.618;8.334;2023-11-21T06:04:06;2.67;;;1.17;;
84101;SDS011;74198;51.618;8.334;2023-11-21T06:06:35;2.85;;;1.23;;
84101;SDS011;74198;51.618;8.334;2023-11-21T06:09:01;2.40;;;1.02;;
84101;SDS011;74198;51.618;8.334;2023-11-21T06:11:28;3.40;;;1.00;;
84101;SDS011;74198;51.618;8.334;2023-11-21T06:13:54;1.42;;;0.95;;
84101;SDS011;74198;51.618;8.334;2023-11-21T06:16:20;2.55;;;1.05;;
84101;SDS011;74198;51.618;8.334;2023-11-21T06:18:46;2.80;;;0.98;;
84101;SDS011;74198;51.618;8.334;2023-11-21T06:21:12;2.20;;;1.10;;
84101;SDS011;74198;51.618;8.334;2023-11-21T06:23:38;3.72;;;1.17;;
84101;SDS011;74198;51.618;8.334;2023-11-21T06:26:04;2.38;;;1.02;;
84101;SDS011;74198;51.618;8.334;2023-11-21T06:28:31;4.20;;;1.30;;
84101;SDS011;74198;51.618;8.334;2023-11-21T06:30:57;3.40;;;1.35;;
84101;SDS011;74198;51.618;8.334;2023-11-21T06:33:23;5.40;;;1.17;;
84101;SDS011;74198;51.618;8.334;2023-11-21T06:35:52;3.53;;;1.05;;
84101;SDS011;74198;51.618;8.334;2023-11-21T06:38:18;2.85;;;1.05;;
84101;SDS011;74198;51.618;8.334;2023-11-21T06:40:44;3.65;;;1.50;;
84101;SDS011;74198;51.618;8.334;2023-11-21T06:43:11;3.67;;;1.35;;
84101;SDS011;74198;51.618;8.334;2023-11-21T06:45:37;3.92;;;1.40;;
84101;SDS011;74198;51.618;8.334;2023-11-21T06:48:03;5.68;;;1.70;;
84101;SDS011;74198;51.618;8.334;2023-11-21T06:50:29;2.90;;;1.20;;
84101;SDS011;74198;51.618;8.334;2023-11-21T06:52:55;2.67;;;1.23;;
84101;SDS011;74198;51.618;8.334;2023-11-21T06:55:21;3.40;;;1.58;;
84101;SDS011;74198;51.618;8.334;2023-11-21T06:57:47;6.45;;;1.30;;
84101;SDS011;74198;51.618;8.334;2023-11-21T07:00:15;3.67;;;1.35;;
84101;SDS011;74198;51.618;8.334;2023-11-21T07:02:42;3.05;;;1.58;;
84101;SDS011;74198;51.618;8.334;2023-11-21T07:05:08;2.72;;;1.50;;
84101;SDS011;74198;51.618;8.334;2023-11-21T07:07:35;4.22;;;1.70;;
84101;SDS011;74198;51.618;8.334;2023-11-21T07:10:02;3.33;;;1.40;;
84101;SDS011;74198;51.618;8.334;2023-11-21T07:12:29;2.90;;;1.27;;
84101;SDS011;74198;51.618;8.334;2023-11-21T07:14:56;4.10;;;1.50;;
84101;SDS011;74198;51.618;8.334;2023-11-21T07:17:22;3.67;;;1.63;;
84101;SDS011;74198;51.618;8.334;2023-11-21T07:19:48;3.63;;;1.80;;
84101;SDS011;74198;51.618;8.334;2023-11-21T07:22:15;4.45;;;1.92;;
84101;SDS011;74198;51.618;8.334;2023-11-21T07:24:46;4.50;;;2.20;;
84101;SDS011;74198;51.618;8.334;2023-11-21T07:27:13;4.00;;;1.55;;
84101;SDS011;74198;51.618;8.334;2023-11-21T07:29:39;4.28;;;1.77;;
84101;SDS011;74198;51.618;8.334;2023-11-21T07:32:05;4.72;;;2.17;;
84101;SDS011;74198;51.618;8.334;2023-11-21T07:34:34;4.20;;;2.17;;
84101;SDS011;74198;51.618;8.334;2023-11-21T07:37:00;4.78;;;1.98;;
84101;SDS011;74198;51.618;8.334;2023-11-21T07:39:26;4.50;;;2.60;;
84101;SDS011;74198;51.618;8.334;2023-11-21T07:41:52;4.80;;;2.42;;
84101;SDS011;74198;51.618;8.334;2023-11-21T07:44:19;5.85;;;2.40;;
84101;SDS011;74198;51.618;8.334;2023-11-21T07:46:45;4.65;;;2.28;;
84101;SDS011;74198;51.618;8.334;2023-11-21T07:49:11;6.03;;;2.53;;
84101;SDS011;74198;51.618;8.334;2023-11-21T07:51:41;5.60;;;2.03;;
84101;SDS011;74198;51.618;8.334;2023-11-21T07:54:07;4.53;;;2.70;;
84101;SDS011;74198;51.618;8.334;2023-11-21T07:56:33;5.20;;;2.53;;
84101;SDS011;74198;51.618;8.334;2023-11-21T07:58:59;6.25;;;2.55;;
84101;SDS011;74198;51.618;8.334;2023-11-21T08:01:25;5.82;;;2.70;;
84101;SDS011;74198;51.618;8.334;2023-11-21T08:03:52;6.93;;;3.05;;
84101;SDS011;74198;51.618;8.334;2023-11-21T08:06:21;7.18;;;2.80;;
84101;SDS011;74198;51.618;8.334;2023-11-21T08:08:47;5.35;;;3.25;;
84101;SDS011;74198;51.618;8.334;2023-11-21T08:11:13;10.13;;;3.13;;
84101;SDS011;74198;51.618;8.334;2023-11-21T08:13:39;6.75;;;3.53;;
84101;SDS011;74198;51.618;8.334;2023-11-21T08:16:05;5.82;;;2.90;;
84101;SDS011;74198;51.618;8.334;2023-11-21T08:18:32;6.45;;;3.35;;
84101;SDS011;74198;51.618;8.334;2023-11-21T08:20:59;8.23;;;3.10;;
84101;SDS011;74198;51.618;8.334;2023-11-21T08:23:25;5.72;;;2.88;;
84101;SDS011;74198;51.618;8.334;2023-11-21T08:25:51;5.30;;;2.95;;
84101;SDS011;74198;51.618;8.334;2023-11-21T08:28:17;6.60;;;3.45;;
84101;SDS011;74198;51.618;8.334;2023-11-21T08:30:43;6.90;;;3.28;;
84101;SDS011;74198;51.618;8.334;2023-11-21T08:33:09;5.25;;;3.25;;
84101;SDS011;74198;51.618;8.334;2023-11-21T08:35:39;6.00;;;3.05;;
84101;SDS011;74198;51.618;8.334;2023-11-21T08:38:04;8.48;;;3.78;;
84101;SDS011;74198;51.618;8.334;2023-11-21T08:40:31;5.22;;;2.83;;
84101;SDS011;74198;51.618;8.334;2023-11-21T08:42:57;7.43;;;3.20;;
84101;SDS011;74198;51.618;8.334;2023-11-21T08:45:24;6.38;;;3.05;;
84101;SDS011;74198;51.618;8.334;2023-11-21T08:47:51;7.70;;;3.80;;
84101;SDS011;74198;51.618;8.334;2023-11-21T08:50:17;8.85;;;3.20;;
84101;SDS011;74198;51.618;8.334;2023-11-21T08:52:44;6.50;;;3.65;;
84101;SDS011;74198;51.618;8.334;2023-11-21T08:55:13;6.80;;;3.42;;
84101;SDS011;74198;51.618;8.334;2023-11-21T08:57:39;6.30;;;3.10;;
84101;SDS011;74198;51.618;8.334;2023-11-21T09:00:06;5.78;;;3.13;;
84101;SDS011;74198;51.618;8.334;2023-11-21T09:02:37;9.05;;;4.35;;
84101;SDS011;74198;51.618;8.334;2023-11-21T09:05:04;7.40;;;4.05;;
84101;SDS011;74198;51.618;8.334;2023-11-21T09:07:31;7.85;;;4.57;;
84101;SDS011;74198;51.618;8.334;2023-11-21T09:09:57;9.40;;;4.72;;
84101;SDS011;74198;51.618;8.334;2023-11-21T09:12:23;11.48;;;4.93;;
84101;SDS011;74198;51.618;8.334;2023-11-21T09:14:50;9.02;;;4.40;;
84101;SDS011;74198;51.618;8.334;2023-11-21T09:17:16;9.18;;;4.85;;
84101;SDS011;74198;51.618;8.334;2023-11-21T09:19:42;9.02;;;4.32;;
84101;SDS011;74198;51.618;8.334;2023-11-21T09:22:15;8.88;;;4.50;;
84101;SDS011;74198;51.618;8.334;2023-11-21T09:24:41;10.38;;;4.60;;
84101;SDS011;74198;51.618;8.334;2023-11-21T09:27:07;11.60;;;5.07;;
84101;SDS011;74198;51.618;8.334;2023-11-21T09:29:34;17.77;;;5.50;;
84101;SDS011;74198;51.618;8.334;2023-11-21T09:32:00;9.90;;;4.80;;
84101;SDS011;74198;51.618;8.334;2023-11-21T09:34:26;12.55;;;4.70;;
84101;SDS011;74198;51.618;8.334;2023-11-21T09:36:52;13.02;;;4.82;;
84101;SDS011;74198;51.618;8.334;2023-11-21T09:39:18;11.73;;;4.72;;
84101;SDS011;74198;51.618;8.334;2023-11-21T09:44:39;11.93;;;4.82;;
84101;SDS011;74198;51.618;8.334;2023-11-21T09:47:07;9.75;;;4.43;;
84101;SDS011;74198;51.618;8.334;2023-11-21T09:49:35;12.63;;;4.55;;
84101;SDS011;74198;51.618;8.334;2023-11-21T09:52:01;9.07;;;4.82;;
84101;SDS011;74198;51.618;8.334;2023-11-21T09:54:31;14.23;;;5.40;;
84101;SDS011;74198;51.618;8.334;2023-11-21T09:56:58;10.38;;;4.68;;
84101;SDS011;74198;51.618;8.334;2023-11-21T09:59:24;10.32;;;4.78;;
84101;SDS011;74198;51.618;8.334;2023-11-21T10:01:54;11.15;;;4.78;;
84101;SDS011;74198;51.618;8.334;2023-11-21T10:04:22;9.38;;;5.05;;
84101;SDS011;74198;51.618;8.334;2023-11-21T10:06:48;11.48;;;5.28;;
84101;SDS011;74198;51.618;8.334;2023-11-21T10:09:16;13.60;;;5.22;;
84101;SDS011;74198;51.618;8.334;2023-11-21T10:11:42;12.50;;;5.60;;
84101;SDS011;74198;51.618;8.334;2023-11-21T10:14:10;9.85;;;4.18;;
84101;SDS011;74198;51.618;8.334;2023-11-21T10:16:37;12.95;;;4.55;;
84101;SDS011;74198;51.618;8.334;2023-11-21T10:19:04;14.48;;;4.75;;
84101;SDS011;74198;51.618;8.334;2023-11-21T10:21:34;14.00;;;5.10;;
84101;SDS011;74198;51.618;8.334;2023-11-21T10:24:00;11.38;;;4.43;;
84101;SDS011;74198;51.618;8.334;2023-11-21T10:26:27;8.68;;;3.97;;
84101;SDS011;74198;51.618;8.334;2023-11-21T10:28:59;12.10;;;4.38;;
84101;SDS011;74198;51.618;8.334;2023-11-21T10:31:32;11.23;;;4.53;;
84101;SDS011;74198;51.618;8.334;2023-11-21T10:34:15;14.50;;;4.53;;
84101;SDS011;74198;51.618;8.334;2023-11-21T10:36:41;13.40;;;4.38;;
84101;SDS011;74198;51.618;8.334;2023-11-21T10:39:08;15.38;;;4.50;;
84101;SDS011;74198;51.618;8.334;2023-11-21T10:41:36;8.73;;;3.90;;
84101;SDS011;74198;51.618;8.334;2023-11-21T10:44:03;11.25;;;4.35;;
84101;SDS011;74198;51.618;8.334;2023-11-21T10:46:32;10.63;;;4.72;;
84101;SDS011;74198;51.618;8.334;2023-11-21T10:48:58;12.52;;;4.30;;
84101;SDS011;74198;51.618;8.334;2023-11-21T10:51:25;11.75;;;4.50;;
84101;SDS011;74198;51.618;8.334;2023-11-21T10:53:51;10.23;;;3.83;;
84101;SDS011;74198;51.618;8.334;2023-11-21T10:56:17;10.73;;;4.40;;
84101;SDS011;74198;51.618;8.334;2023-11-21T10:58:45;11.95;;;4.50;;
84101;SDS011;74198;51.618;8.334;2023-11-21T11:01:12;14.00;;;5.07;;
84101;SDS011;74198;51.618;8.334;2023-11-21T11:03:39;17.52;;;7.00;;
84101;SDS011;74198;51.618;8.334;2023-11-21T11:06:05;16.17;;;6.47;;
84101;SDS011;74198;51.618;8.334;2023-11-21T11:11:02;13.75;;;6.20;;
84101;SDS011;74198;51.618;8.334;2023-11-21T11:13:28;11.75;;;5.40;;
84101;SDS011;74198;51.618;8.334;2023-11-21T11:15:57;14.00;;;6.18;;
84101;SDS011;74198;51.618;8.334;2023-11-21T11:18:27;10.93;;;5.32;;
84101;SDS011;74198;51.618;8.334;2023-11-21T11:20:54;12.77;;;5.45;;
84101;SDS011;74198;51.618;8.334;2023-11-21T11:23:39;12.23;;;4.72;;
84101;SDS011;74198;51.618;8.334;2023-11-21T11:26:20;9.38;;;4.22;;
84101;SDS011;74198;51.618;8.334;2023-11-21T11:31:49;11.63;;;4.35;;
84101;SDS011;74198;51.618;8.334;2023-11-21T11:34:20;10.00;;;3.88;;
84101;SDS011;74198;51.618;8.334;2023-11-21T11:37:00;9.48;;;4.15;;
84101;SDS011;74198;51.618;8.334;2023-11-21T11:39:28;10.10;;;3.90;;
84101;SDS011;74198;51.618;8.334;2023-11-21T11:41:58;9.13;;;4.35;;
84101;SDS011;74198;51.618;8.334;2023-11-21T11:45:00;8.80;;;3.72;;
84101;SDS011;74198;51.618;8.334;2023-11-21T11:55:00;8.23;;;4.00;;
84101;SDS011;74198;51.618;8.334;2023-11-21T11:57:26;8.55;;;3.88;;
84101;SDS011;74198;51.618;8.334;2023-11-21T12:00:08;10.32;;;4.35;;
84101;SDS011;74198;51.618;8.334;2023-11-21T12:02:40;9.10;;;4.10;;
84101;SDS011;74198;51.618;8.334;2023-11-21T12:05:13;9.10;;;4.50;;
84101;SDS011;74198;51.618;8.334;2023-11-21T12:07:53;9.75;;;3.95;;
84101;SDS011;74198;51.618;8.334;2023-11-21T12:10:26;6.82;;;3.70;;
84101;SDS011;74198;51.618;8.334;2023-11-21T12:12:59;7.60;;;3.72;;
84101;SDS011;74198;51.618;8.334;2023-11-21T12:15:26;8.65;;;3.63;;
84101;SDS011;74198;51.618;8.334;2023-11-21T12:17:55;8.25;;;4.10;;
84101;SDS011;74198;51.618;8.334;2023-11-21T12:20:22;10.45;;;4.60;;
84101;SDS011;74198;51.618;8.334;2023-11-21T12:22:52;9.30;;;4.20;;
84101;SDS011;74198;51.618;8.334;2023-11-21T12:27:45;7.60;;;3.92;;
84101;SDS011;74198;51.618;8.334;2023-11-21T12:30:12;8.95;;;4.00;;
84101;SDS011;74198;51.618;8.334;2023-11-21T12:32:42;7.28;;;3.47;;
84101;SDS011;74198;51.618;8.334;2023-11-21T12:35:12;7.53;;;3.35;;
84101;SDS011;74198;51.618;8.334;2023-11-21T12:37:38;5.93;;;3.40;;
84101;SDS011;74198;51.618;8.334;2023-11-21T12:40:05;7.90;;;3.85;;
84101;SDS011;74198;51.618;8.334;2023-11-21T12:42:32;7.00;;;3.70;;
84101;SDS011;74198;51.618;8.334;2023-11-21T12:45:20;8.57;;;3.78;;
84101;SDS011;74198;51.618;8.334;2023-11-21T12:47:52;7.40;;;3.80;;
84101;SDS011;74198;51.618;8.334;2023-11-21T12:50:23;5.90;;;3.20;;
84101;SDS011;74198;51.618;8.334;2023-11-21T12:52:53;7.38;;;3.88;;
84101;SDS011;74198;51.618;8.334;2023-11-21T12:55:20;6.90;;;3.25;;
84101;SDS011;74198;51.618;8.334;2023-11-21T12:57:50;5.25;;;3.00;;
84101;SDS011;74198;51.618;8.334;2023-11-21T13:00:17;7.32;;;3.20;;
84101;SDS011;74198;51.618;8.334;2023-11-21T13:02:52;7.53;;;3.38;;
84101;SDS011;74198;51.618;8.334;2023-11-21T13:07:50;6.45;;;3.03;;
84101;SDS011;74198;51.618;8.334;2023-11-21T13:10:19;6.05;;;2.92;;
84101;SDS011;74198;51.618;8.334;2023-11-21T13:12:49;6.25;;;3.10;;
84101;SDS011;74198;51.618;8.334;2023-11-21T13:15:17;5.03;;;2.92;;
84101;SDS011;74198;51.618;8.334;2023-11-21T13:17:43;6.07;;;3.30;;
84101;SDS011;74198;51.618;8.334;2023-11-21T13:20:13;6.10;;;3.30;;
84101;SDS011;74198;51.618;8.334;2023-11-21T13:22:55;6.45;;;2.95;;
84101;SDS011;74198;51.618;8.334;2023-11-21T13:25:29;6.55;;;2.95;;
84101;SDS011;74198;51.618;8.334;2023-11-21T13:27:56;5.35;;;2.90;;
84101;SDS011;74198;51.618;8.334;2023-11-21T13:30:22;4.65;;;2.50;;
84101;SDS011;74198;51.618;8.334;2023-11-21T13:32:55;4.60;;;2.63;;
84101;SDS011;74198;51.618;8.334;2023-11-21T13:35:22;6.50;;;3.13;;
84101;SDS011;74198;51.618;8.334;2023-11-21T13:37:57;5.13;;;2.80;;
84101;SDS011;74198;51.618;8.334;2023-11-21T13:40:28;5.07;;;2.80;;
84101;SDS011;74198;51.618;8.334;2023-11-21T13:42:54;6.05;;;3.05;;
84101;SDS011;74198;51.618;8.334;2023-11-21T13:45:23;5.72;;;3.28;;
84101;SDS011;74198;51.618;8.334;2023-11-21T13:47:50;4.80;;;2.60;;
84101;SDS011;74198;51.618;8.334;2023-11-21T13:50:17;4.05;;;2.42;;
84101;SDS011;74198;51.618;8.334;2023-11-21T13:52:47;3.85;;;2.13;;
84101;SDS011;74198;51.618;8.334;2023-11-21T13:55:14;4.45;;;2.42;;
84101;SDS011;74198;51.618;8.334;2023-11-21T13:57:42;4.15;;;2.60;;
84101;SDS011;74198;51.618;8.334;2023-11-21T14:00:10;3.85;;;2.33;;
84101;SDS011;74198;51.618;8.334;2023-11-21T14:02:56;6.45;;;2.53;;
84101;SDS011;74198;51.618;8.334;2023-11-21T14:05:29;4.55;;;2.50;;
84101;SDS011;74198;51.618;8.334;2023-11-21T14:07:56;4.90;;;2.50;;
84101;SDS011;74198;51.618;8.334;2023-11-21T14:10:28;4.82;;;2.47;;
84101;SDS011;74198;51.618;8.334;2023-11-21T14:13:01;4.05;;;2.40;;
84101;SDS011;74198;51.618;8.334;2023-11-21T14:15:27;3.60;;;2.30;;
84101;SDS011;74198;51.618;8.334;2023-11-21T14:17:56;3.65;;;2.10;;
84101;SDS011;74198;51.618;8.334;2023-11-21T14:20:22;4.38;;;2.20;;
84101;SDS011;74198;51.618;8.334;2023-11-21T14:22:48;3.85;;;2.20;;
84101;SDS011;74198;51.618;8.334;2023-11-21T14:25:15;5.38;;;2.25;;
84101;SDS011;74198;51.618;8.334;2023-11-21T14:27:42;5.05;;;2.40;;
84101;SDS011;74198;51.618;8.334;2023-11-21T14:30:08;4.32;;;2.10;;
84101;SDS011;74198;51.618;8.334;2023-11-21T14:32:37;4.63;;;2.20;;
84101;SDS011;74198;51.618;8.334;2023-11-21T14:35:04;4.82;;;2.03;;
84101;SDS011;74198;51.618;8.334;2023-11-21T14:37:30;4.60;;;2.53;;
84101;SDS011;74198;51.618;8.334;2023-11-21T14:39:56;3.75;;;2.10;;
84101;SDS011;74198;51.618;8.334;2023-11-21T14:42:22;3.78;;;2.05;;
84101;SDS011;74198;51.618;8.334;2023-11-21T14:44:51;4.05;;;2.05;;
84101;SDS011;74198;51.618;8.334;2023-11-21T14:47:19;3.90;;;2.08;;
84101;SDS011;74198;51.618;8.334;2023-11-21T14:49:50;4.25;;;2.10;;
84101;SDS011;74198;51.618;8.334;2023-11-21T14:52:21;3.10;;;2.17;;
84101;SDS011;74198;51.618;8.334;2023-11-21T14:55:00;2.85;;;1.55;;
84101;SDS011;74198;51.618;8.334;2023-11-21T14:57:49;3.30;;;1.75;;
84101;SDS011;74198;51.618;8.334;2023-11-21T15:00:16;4.25;;;2.38;;
84101;SDS011;74198;51.618;8.334;2023-11-21T15:03:02;4.32;;;2.00;;
84101;SDS011;74198;51.618;8.334;2023-11-21T15:05:29;3.08;;;1.80;;
84101;SDS011;74198;51.618;8.334;2023-11-21T15:07:55;3.40;;;1.70;;